Time;durP1;ratioP1;P1;durP2;ratioP2;P2;SDS_P1;SDS_P2;PMS_P1;PMS_P2;Temp;Humidity;BMP_temperature;BMP_pressure;BME280_temperature;BME280_humidity;BME280_pressure;Samples;Min_cycle;Max_cycle;Signal;HPM_P1;HPM_P2
2023/11/11 00:01:17;;;;;;;4.80;4.50;;;8.10;99.90;;;;;;5103760;27;20106;-83
2023/11/11 00:03:42;;;;;;;6.57;4.85;;;8.10;99.90;;;;;;5123000;27;20023;-84
2023/11/11 00:06:09;;;;;;;5.28;4.45;;;8.00;99.90;;;;;;5105386;27;20020;-84
2023/11/11 00:08:34;;;;;;;5.10;4.57;;;8.00;99.90;;;;;;5106922;27;20700;-84
2023/11/11 00:11:00;;;;;;;4.43;4.03;;;8.00;99.90;;;;;;5099225;27;20100;-84
2023/11/11 00:13:26;;;;;;;3.15;2.85;;;8.00;99.90;;;;;;5118748;27;20024;-83
2023/11/11 00:15:52;;;;;;;4.00;2.90;;;7.90;99.90;;;;;;5101462;28;20090;-84
2023/11/11 00:18:18;;;;;;;2.75;2.10;;;7.90;99.90;;;;;;5116953;27;20058;-84
2023/11/11 00:20:47;;;;;;;1.95;1.77;;;7.90;99.90;;;;;;5117560;27;20524;-84
2023/11/11 00:23:13;;;;;;;2.95;1.75;;;8.00;99.90;;;;;;5119176;27;20075;-84
2023/11/11 00:25:42;;;;;;;1.73;1.63;;;8.00;99.90;;;;;;5102736;27;20068;-84
2023/11/11 00:28:10;;;;;;;1.85;1.40;;;8.00;99.90;;;;;;5123884;27;20023;-83
2023/11/11 00:30:36;;;;;;;2.95;1.73;;;8.00;99.90;;;;;;5112879;27;20127;-83
2023/11/11 00:33:02;;;;;;;2.53;1.55;;;8.10;99.90;;;;;;5104447;27;20045;-83
2023/11/11 00:35:28;;;;;;;1.63;1.50;;;8.10;99.90;;;;;;5103915;28;20050;-83
2023/11/11 00:37:54;;;;;;;3.40;3.15;;;8.10;99.90;;;;;;5123506;27;20482;-84
2023/11/11 00:40:20;;;;;;;4.38;2.78;;;8.00;99.90;;;;;;5120231;28;20136;-84
2023/11/11 00:42:45;;;;;;;2.45;2.25;;;7.90;99.90;;;;;;5102802;28;20247;-85
2023/11/11 00:45:13;;;;;;;1.67;1.58;;;7.70;99.90;;;;;;5102320;28;20055;-84
2023/11/11 00:47:39;;;;;;;2.03;1.92;;;7.60;99.90;;;;;;5120736;28;20115;-84
2023/11/11 00:50:06;;;;;;;2.33;2.15;;;7.60;99.90;;;;;;5115912;28;20016;-84
2023/11/11 00:52:33;;;;;;;1.88;1.77;;;7.60;99.90;;;;;;5098161;28;20139;-83
2023/11/11 00:55:00;;;;;;;2.63;1.75;;;7.60;99.90;;;;;;5106137;28;20030;-84
2023/11/11 00:57:26;;;;;;;2.00;1.80;;;7.60;99.90;;;;;;5105954;28;20114;-84
2023/11/11 00:59:51;;;;;;;2.13;2.03;;;7.50;99.90;;;;;;5122490;28;20478;-84
2023/11/11 01:02:17;;;;;;;2.85;1.92;;;7.50;99.90;;;;;;5102047;28;20031;-84
2023/11/11 01:04:43;;;;;;;2.67;1.80;;;7.50;99.90;;;;;;5123039;28;20034;-84
2023/11/11 01:07:08;;;;;;;1.92;1.75;;;7.50;99.90;;;;;;5121652;28;20034;-84
2023/11/11 01:09:34;;;;;;;2.30;1.80;;;7.50;99.90;;;;;;5103017;28;20019;-84
2023/11/11 01:12:00;;;;;;;2.13;1.90;;;7.50;99.90;;;;;;5104709;28;20027;-83
2023/11/11 01:14:26;;;;;;;4.25;2.35;;;7.40;99.90;;;;;;5101720;28;20487;-84
2023/11/11 01:16:52;;;;;;;1.85;1.75;;;7.40;99.90;;;;;;5101108;28;20031;-84
2023/11/11 01:19:19;;;;;;;2.03;1.85;;;7.30;99.90;;;;;;5103646;28;20458;-83
2023/11/11 01:21:46;;;;;;;1.70;1.60;;;7.30;99.90;;;;;;5123142;28;20050;-83
2023/11/11 01:24:12;;;;;;;2.25;2.05;;;7.30;99.90;;;;;;5120400;28;20031;-84
2023/11/11 01:26:38;;;;;;;1.90;1.80;;;7.10;99.90;;;;;;5104650;28;20031;-84
2023/11/11 01:29:04;;;;;;;2.22;2.13;;;6.90;99.90;;;;;;5121549;28;20028;-84
2023/11/11 01:31:31;;;;;;;5.90;3.00;;;6.90;99.90;;;;;;5105149;28;20068;-84
2023/11/11 01:33:56;;;;;;;2.75;2.55;;;6.90;99.90;;;;;;5102278;28;20560;-84
2023/11/11 01:36:22;;;;;;;2.53;2.28;;;6.90;99.90;;;;;;5105462;28;20043;-85
2023/11/11 01:38:48;;;;;;;3.60;2.20;;;7.00;99.90;;;;;;5101235;28;20043;-84
2023/11/11 01:41:14;;;;;;;2.95;2.53;;;7.10;99.90;;;;;;5103517;28;20027;-84
2023/11/11 01:43:39;;;;;;;1.95;1.80;;;7.10;99.90;;;;;;5106084;28;20026;-85
2023/11/11 01:46:06;;;;;;;1.65;1.42;;;7.20;99.90;;;;;;5120449;28;20052;-85
2023/11/11 01:48:37;;;;;;;1.58;1.23;;;7.20;99.90;;;;;;5120476;28;20118;-85
2023/11/11 01:51:03;;;;;;;2.33;1.00;;;7.30;99.90;;;;;;5102852;27;20023;-85
2023/11/11 01:53:30;;;;;;;0.90;0.90;;;7.30;99.90;;;;;;5106541;27;20379;-84
2023/11/11 01:55:56;;;;;;;1.75;1.02;;;7.40;99.90;;;;;;5126982;27;20098;-84
2023/11/11 01:58:22;;;;;;;0.80;0.80;;;7.50;99.90;;;;;;5105803;27;20058;-84
2023/11/11 02:00:48;;;;;;;0.70;0.70;;;7.60;99.90;;;;;;5124154;27;20459;-84
2023/11/11 02:03:14;;;;;;;1.23;1.13;;;7.70;99.90;;;;;;5106536;27;20038;-85
2023/11/11 02:05:40;;;;;;;0.73;0.73;;;7.70;99.90;;;;;;5108525;27;20454;-84
2023/11/11 02:08:07;;;;;;;1.23;0.70;;;7.80;99.90;;;;;;5105104;27;20024;-84
2023/11/11 02:10:36;;;;;;;0.73;0.73;;;7.80;99.90;;;;;;5107330;27;20027;-85
2023/11/11 02:13:02;;;;;;;0.88;0.88;;;7.90;97.10;;;;;;5107520;27;20050;-84
2023/11/11 02:15:29;;;;;;;0.88;0.85;;;8.00;93.20;;;;;;5123693;27;20027;-84
2023/11/11 02:18:04;;;;;;;0.80;0.80;;;7.90;99.80;;;;;;5100766;27;20573;-84
2023/11/11 02:20:33;;;;;;;0.80;0.80;;;7.80;99.90;;;;;;5125902;27;20379;-85
2023/11/11 02:23:00;;;;;;;2.28;1.20;;;7.60;99.90;;;;;;5122959;27;20019;-84
2023/11/11 02:25:25;;;;;;;1.10;0.90;;;7.60;99.90;;;;;;5105535;27;20028;-84
2023/11/11 02:27:51;;;;;;;6.70;0.95;;;7.70;99.90;;;;;;5124789;27;20031;-84
2023/11/11 02:30:17;;;;;;;1.80;1.05;;;7.70;99.90;;;;;;5124045;27;20498;-84
2023/11/11 02:32:43;;;;;;;0.90;0.90;;;7.50;99.90;;;;;;5103811;28;20019;-84
2023/11/11 02:35:09;;;;;;;0.73;0.47;;;7.50;99.90;;;;;;5122806;27;20027;-84
2023/11/11 02:37:34;;;;;;;3.47;0.82;;;7.60;99.90;;;;;;5107091;27;20034;-83
2023/11/11 02:40:00;;;;;;;1.35;0.88;;;7.60;99.90;;;;;;5124463;27;20035;-84
2023/11/11 02:42:26;;;;;;;0.70;0.70;;;7.60;99.90;;;;;;5105351;28;20024;-83
2023/11/11 02:44:51;;;;;;;0.80;0.68;;;7.60;99.90;;;;;;5126214;27;20058;-84
2023/11/11 02:47:17;;;;;;;1.05;0.65;;;7.70;98.70;;;;;;5104511;27;20028;-83
2023/11/11 02:49:43;;;;;;;0.82;0.50;;;7.70;95.70;;;;;;5104295;28;20026;-84
2023/11/11 02:52:09;;;;;;;0.88;0.88;;;7.70;95.70;;;;;;5124180;27;20040;-83
2023/11/11 02:54:35;;;;;;;0.65;0.65;;;7.80;84.30;;;;;;5108329;27;20016;-84
2023/11/11 02:57:01;;;;;;;1.48;0.90;;;7.90;84.10;;;;;;5122576;27;20023;-84
2023/11/11 02:59:26;;;;;;;1.40;0.90;;;8.00;68.90;;;;;;5107167;27;20079;-85
2023/11/11 03:01:52;;;;;;;0.80;0.60;;;8.10;56.10;;;;;;5106277;27;20386;-84
2023/11/11 03:04:18;;;;;;;0.60;0.60;;;8.20;41.70;;;;;;5106099;27;20110;-85
2023/11/11 03:06:46;;;;;;;0.70;0.63;;;8.20;44.30;;;;;;5123004;27;20063;-84
2023/11/11 03:09:12;;;;;;;1.15;0.65;;;8.30;37.60;;;;;;5125659;27;20047;-85
2023/11/11 03:11:38;;;;;;;0.90;0.90;;;8.30;33.20;;;;;;5122981;27;20024;-85
2023/11/11 03:14:04;;;;;;;0.73;0.70;;;8.30;36.30;;;;;;5124089;27;20027;-84
2023/11/11 03:16:38;;;;;;;0.93;0.70;;;8.40;18.60;;;;;;5124341;27;20152;-84
2023/11/11 03:19:04;;;;;;;0.63;0.63;;;8.40;43.20;;;;;;5118779;27;20513;-83
2023/11/11 03:21:31;;;;;;;13.30;5.53;;;8.30;52.90;;;;;;5106437;27;20111;-84
2023/11/11 03:23:56;;;;;;;2.65;1.92;;;8.20;48.70;;;;;;5123369;27;20031;-84
2023/11/11 03:26:23;;;;;;;3.10;1.30;;;8.10;54.50;;;;;;5125386;27;20019;-84
2023/11/11 03:28:49;;;;;;;1.58;0.82;;;8.00;55.10;;;;;;5125203;27;20512;-85
2023/11/11 03:31:17;;;;;;;1.00;0.70;;;8.10;38.00;;;;;;5102927;27;20031;-85
2023/11/11 03:33:43;;;;;;;0.80;0.80;;;8.10;43.70;;;;;;5124109;27;20372;-85
2023/11/11 03:36:09;;;;;;;0.60;0.60;;;8.20;36.00;;;;;;5122460;27;20159;-84
2023/11/11 03:38:34;;;;;;;1.25;0.70;;;8.20;32.20;;;;;;5125504;27;20133;-84
2023/11/11 03:41:00;;;;;;;0.50;0.50;;;8.20;43.00;;;;;;5124781;27;20534;-83
2023/11/11 03:43:26;;;;;;;0.60;0.60;;;8.20;39.60;;;;;;5104800;27;20123;-84
2023/11/11 03:45:52;;;;;;;0.82;0.82;;;8.20;46.00;;;;;;5122963;27;20027;-84
2023/11/11 03:48:17;;;;;;;0.70;0.70;;;8.20;41.40;;;;;;5106022;27;20031;-84
2023/11/11 03:50:43;;;;;;;0.60;0.60;;;8.20;35.50;;;;;;5106710;27;20023;-85
2023/11/11 03:53:10;;;;;;;0.90;0.90;;;8.20;30.80;;;;;;5122157;27;20054;-84
2023/11/11 03:55:36;;;;;;;1.02;0.70;;;8.20;29.10;;;;;;5105207;27;20020;-84
2023/11/11 03:58:02;;;;;;;1.20;0.70;;;8.20;21.20;;;;;;5105467;27;20394;-85
2023/11/11 04:00:28;;;;;;;0.80;0.80;;;8.20;28.20;;;;;;5121479;27;20036;-85
2023/11/11 04:02:55;;;;;;;0.60;0.60;;;8.20;30.40;;;;;;5116992;27;20023;-84
2023/11/11 04:05:20;;;;;;;1.05;0.95;;;8.20;36.10;;;;;;5122522;27;20027;-84
2023/11/11 04:07:47;;;;;;;0.93;0.90;;;8.20;33.40;;;;;;5104126;27;20034;-84
2023/11/11 04:10:17;;;;;;;3.58;0.80;;;8.10;31.30;;;;;;5124087;27;20127;-83
2023/11/11 04:12:46;;;;;;;2.05;1.02;;;8.20;33.60;;;;;;5099193;27;20250;-83
2023/11/11 04:15:12;;;;;;;1.95;1.85;;;8.10;41.60;;;;;;5122360;27;20019;-83
2023/11/11 04:17:42;;;;;;;6.75;2.65;;;8.00;69.60;;;;;;5105904;27;20068;-83
2023/11/11 04:20:09;;;;;;;1.33;0.90;;;7.90;67.70;;;;;;5105912;27;20050;-84
2023/11/11 04:22:35;;;;;;;1.48;0.80;;;7.70;62.10;;;;;;5103684;27;20425;-83
2023/11/11 04:25:05;;;;;;;3.08;0.93;;;7.60;73.80;;;;;;5103971;27;20019;-83
2023/11/11 04:27:31;;;;;;;1.85;0.85;;;7.50;74.70;;;;;;5123304;27;20280;-83
2023/11/11 04:29:58;;;;;;;1.13;1.10;;;7.40;77.80;;;;;;5100479;27;20026;-83
2023/11/11 04:32:27;;;;;;;1.05;0.93;;;7.40;84.60;;;;;;5121991;27;20027;-83
2023/11/11 04:34:53;;;;;;;0.80;0.80;;;7.30;89.50;;;;;;5121653;27;20030;-83
2023/11/11 04:37:19;;;;;;;0.68;0.68;;;7.30;78.50;;;;;;5124019;27;20020;-83
2023/11/11 04:39:45;;;;;;;1.58;1.00;;;7.20;93.40;;;;;;5116328;27;20034;-83
2023/11/11 04:42:17;;;;;;;1.10;1.10;;;7.10;70.50;;;;;;5103309;28;20051;-83
2023/11/11 04:44:43;;;;;;;;;;;7.00;82.30;;;;;;5121219;27;20490;-83
2023/11/11 04:47:10;;;;;;;1.08;0.63;;;6.80;73.90;;;;;;5102216;28;19908;-83
2023/11/11 04:49:37;;;;;;;0.63;0.63;;;6.80;84.20;;;;;;5104620;28;20030;-83
2023/11/11 04:52:06;;;;;;;0.95;0.95;;;6.70;92.90;;;;;;5122434;28;20194;-84
2023/11/11 04:54:32;;;;;;;1.00;0.90;;;6.80;94.20;;;;;;5123515;28;20030;-84
2023/11/11 04:57:01;;;;;;;2.03;1.60;;;6.70;93.70;;;;;;5102071;28;20027;-83
2023/11/11 04:59:27;;;;;;;1.88;1.73;;;6.70;98.20;;;;;;5122251;28;20023;-84
2023/11/11 05:01:53;;;;;;;0.90;0.90;;;6.70;94.00;;;;;;5104239;28;20386;-83
2023/11/11 05:04:20;;;;;;;1.88;0.73;;;6.70;99.90;;;;;;5102882;28;20024;-84
2023/11/11 05:06:46;;;;;;;1.00;0.90;;;6.70;97.60;;;;;;5105286;28;20083;-84
2023/11/11 05:09:12;;;;;;;0.80;0.80;;;6.70;93.60;;;;;;5119842;28;20015;-83
2023/11/11 05:11:38;;;;;;;0.93;0.90;;;6.60;95.40;;;;;;5103590;28;20472;-84
2023/11/11 05:14:08;;;;;;;0.90;0.90;;;6.60;94.90;;;;;;5103183;28;20112;-83
2023/11/11 05:16:40;;;;;;;1.65;1.05;;;6.60;99.90;;;;;;5121595;28;20489;-84
2023/11/11 05:19:09;;;;;;;1.85;1.75;;;6.60;97.20;;;;;;5102963;28;20019;-83
2023/11/11 05:21:36;;;;;;;1.73;1.48;;;6.60;99.90;;;;;;5098009;28;20391;-84
2023/11/11 05:24:03;;;;;;;1.67;1.58;;;6.60;99.90;;;;;;5123375;28;20547;-83
2023/11/11 05:26:30;;;;;;;2.67;2.47;;;6.60;99.90;;;;;;5105897;27;20161;-83
2023/11/11 05:29:01;;;;;;;1.20;1.10;;;6.50;93.60;;;;;;5125785;27;20011;-84
2023/11/11 05:31:31;;;;;;;4.10;1.10;;;6.50;83.80;;;;;;5105927;28;20026;-83
2023/11/11 05:34:00;;;;;;;1.15;1.05;;;6.40;92.20;;;;;;5121630;27;20084;-84
2023/11/11 05:36:26;;;;;;;1.00;1.00;;;6.40;95.10;;;;;;5128280;27;20033;-84
2023/11/11 05:38:55;;;;;;;1.90;1.15;;;6.40;93.00;;;;;;5124298;27;20020;-83
2023/11/11 05:41:22;;;;;;;2.97;1.92;;;6.30;89.40;;;;;;5101846;27;20266;-83
2023/11/11 05:43:48;;;;;;;2.88;2.10;;;6.30;98.50;;;;;;5126091;27;20023;-83
2023/11/11 05:46:14;;;;;;;2.83;2.30;;;6.30;95.00;;;;;;5107848;27;20467;-84
2023/11/11 05:48:44;;;;;;;2.92;2.33;;;6.40;99.90;;;;;;5124333;27;20027;-84
2023/11/11 05:51:10;;;;;;;1.50;1.40;;;6.20;89.50;;;;;;5118879;27;20366;-84
2023/11/11 05:53:36;;;;;;;4.22;1.90;;;6.20;90.20;;;;;;5123250;27;20058;-83
2023/11/11 05:56:04;;;;;;;1.40;1.35;;;6.10;86.70;;;;;;5125930;27;20043;-84
2023/11/11 05:58:30;;;;;;;2.40;1.38;;;6.10;81.20;;;;;;5105285;28;20066;-84
2023/11/11 06:00:57;;;;;;;1.60;1.50;;;6.10;98.60;;;;;;5126970;27;20054;-84
2023/11/11 06:03:24;;;;;;;3.35;1.70;;;6.10;99.90;;;;;;5124898;27;20558;-84
2023/11/11 06:05:49;;;;;;;4.32;1.13;;;6.10;99.90;;;;;;5125003;27;20032;-83
2023/11/11 06:08:15;;;;;;;1.20;1.10;;;6.10;99.90;;;;;;5107805;27;20033;-83
2023/11/11 06:10:41;;;;;;;1.20;1.13;;;6.10;99.90;;;;;;5105306;27;20023;-83
2023/11/11 06:13:07;;;;;;;2.03;0.93;;;6.10;99.90;;;;;;5126277;27;20015;-84
2023/11/11 06:15:36;;;;;;;2.33;0.98;;;6.20;99.90;;;;;;5104781;27;20007;-85
2023/11/11 06:18:03;;;;;;;1.15;0.98;;;6.10;99.90;;;;;;5126159;27;20106;-84
2023/11/11 06:20:30;;;;;;;1.77;0.90;;;6.10;99.90;;;;;;5105152;27;20031;-84
2023/11/11 06:22:57;;;;;;;0.68;0.68;;;6.10;99.90;;;;;;5107792;27;20047;-84
2023/11/11 06:25:24;;;;;;;1.52;1.15;;;6.10;99.90;;;;;;5104547;28;20441;-85
2023/11/11 06:27:50;;;;;;;0.82;0.68;;;6.10;99.90;;;;;;5104218;28;20051;-85
2023/11/11 06:30:16;;;;;;;1.35;1.13;;;6.20;99.90;;;;;;5126007;27;20106;-85
2023/11/11 06:32:52;;;;;;;1.25;1.10;;;6.30;99.90;;;;;;5126232;27;20066;-86
2023/11/11 06:35:19;;;;;;;0.80;0.80;;;6.30;99.90;;;;;;5123252;27;20019;-84
2023/11/11 06:37:45;;;;;;;2.17;0.77;;;6.30;97.40;;;;;;5125432;27;20031;-84
2023/11/11 06:40:12;;;;;;;1.33;0.80;;;6.40;96.80;;;;;;5105292;27;20030;-85
2023/11/11 06:42:38;;;;;;;1.30;0.80;;;6.50;95.20;;;;;;5106380;27;20030;-84
2023/11/11 06:45:05;;;;;;;1.33;1.10;;;6.40;97.40;;;;;;5107036;27;20023;-84
2023/11/11 06:47:31;;;;;;;0.70;0.70;;;6.50;96.60;;;;;;5104400;28;20023;-85
2023/11/11 06:49:57;;;;;;;1.83;0.90;;;6.50;95.50;;;;;;5122932;27;20236;-84
2023/11/11 06:52:23;;;;;;;1.00;0.85;;;6.50;93.50;;;;;;5124883;27;20104;-85
2023/11/11 06:54:48;;;;;;;0.85;0.85;;;6.60;91.80;;;;;;5122337;27;20376;-85
2023/11/11 06:57:14;;;;;;;1.98;1.15;;;6.60;94.80;;;;;;5125345;27;20094;-85
2023/11/11 06:59:40;;;;;;;1.60;1.50;;;6.60;92.70;;;;;;5122793;27;20046;-84
2023/11/11 07:02:07;;;;;;;1.42;1.10;;;6.70;92.40;;;;;;5107339;27;20080;-84
2023/11/11 07:04:33;;;;;;;1.13;1.10;;;6.70;81.30;;;;;;5105560;27;20036;-84
2023/11/11 07:06:59;;;;;;;1.83;1.73;;;6.70;70.30;;;;;;5108112;27;20041;-85
2023/11/11 07:09:24;;;;;;;4.60;1.60;;;6.70;72.60;;;;;;5104415;28;20031;-83
2023/11/11 07:11:50;;;;;;;1.30;1.20;;;6.90;82.50;;;;;;5122200;27;20391;-85
2023/11/11 07:14:19;;;;;;;1.48;0.95;;;7.00;68.20;;;;;;5125063;27;20015;-85
2023/11/11 07:16:45;;;;;;;1.30;0.98;;;7.00;65.30;;;;;;5122587;27;20019;-84
2023/11/11 07:19:10;;;;;;;0.85;0.85;;;7.00;51.00;;;;;;5106748;27;20084;-85
2023/11/11 07:21:36;;;;;;;1.00;1.00;;;7.00;45.30;;;;;;5103707;27;20027;-85
2023/11/11 07:24:02;;;;;;;1.20;1.10;;;7.10;53.50;;;;;;5122858;27;20020;-85
2023/11/11 07:26:28;;;;;;;1.88;0.90;;;7.10;51.40;;;;;;5126129;27;20023;-84
2023/11/11 07:28:53;;;;;;;0.70;0.70;;;7.20;41.70;;;;;;5121881;27;20506;-84
2023/11/11 07:31:22;;;;;;;1.63;1.05;;;7.20;46.60;;;;;;5103638;27;20466;-83
2023/11/11 07:33:47;;;;;;;3.30;1.48;;;7.30;53.00;;;;;;5117448;27;20019;-83
2023/11/11 07:36:13;;;;;;;2.05;1.30;;;7.40;47.20;;;;;;5104594;27;20402;-83
2023/11/11 07:38:40;;;;;;;2.85;1.58;;;7.40;57.00;;;;;;5123252;27;20105;-83
2023/11/11 07:41:07;;;;;;;2.20;2.00;;;7.40;75.60;;;;;;5124434;27;20079;-84
2023/11/11 07:43:36;;;;;;;4.55;2.67;;;7.50;90.10;;;;;;5121575;27;20224;-84
2023/11/11 07:46:06;;;;;;;3.50;3.20;;;7.50;86.20;;;;;;5125562;27;20030;-83
2023/11/11 07:48:33;;;;;;;3.67;3.10;;;7.50;89.80;;;;;;5104190;28;20080;-83
2023/11/11 07:51:01;;;;;;;3.35;3.10;;;7.60;90.10;;;;;;5122117;27;20019;-83
2023/11/11 07:53:26;;;;;;;3.50;2.50;;;7.60;91.30;;;;;;5103870;27;20463;-83
2023/11/11 07:55:52;;;;;;;2.33;2.13;;;7.70;97.00;;;;;;5123241;27;20050;-83
2023/11/11 07:58:18;;;;;;;1.98;1.88;;;7.70;98.50;;;;;;5123474;27;20027;-83
2023/11/11 08:00:44;;;;;;;1.95;1.85;;;7.70;96.80;;;;;;5105591;27;20065;-83
2023/11/11 08:03:11;;;;;;;3.22;2.92;;;7.80;99.90;;;;;;5121410;27;20020;-84
2023/11/11 08:05:37;;;;;;;6.18;2.97;;;7.80;99.90;;;;;;5105303;27;20029;-84
2023/11/11 08:08:03;;;;;;;4.68;2.85;;;7.80;99.90;;;;;;5123140;27;20491;-83
2023/11/11 08:10:29;;;;;;;3.55;3.25;;;7.90;99.90;;;;;;5103645;28;20024;-84
2023/11/11 08:12:55;;;;;;;4.28;3.75;;;7.90;99.90;;;;;;5106073;27;20038;-83
2023/11/11 08:15:21;;;;;;;3.10;2.90;;;7.90;99.90;;;;;;5101994;27;20015;-83
2023/11/11 08:17:48;;;;;;;3.13;2.92;;;8.00;99.90;;;;;;5103889;27;20040;-83
2023/11/11 08:20:16;;;;;;;3.35;2.72;;;8.00;99.90;;;;;;5121043;27;20160;-83
2023/11/11 08:22:46;;;;;;;3.13;2.92;;;8.00;92.60;;;;;;5121136;27;20479;-84
2023/11/11 08:25:15;;;;;;;4.50;3.08;;;8.10;76.10;;;;;;5105371;27;20034;-83
2023/11/11 08:27:44;;;;;;;4.93;4.30;;;8.10;94.70;;;;;;5122641;27;20027;-83
2023/11/11 08:30:11;;;;;;;5.45;4.95;;;8.20;96.10;;;;;;5102397;28;20030;-83
2023/11/11 08:32:40;;;;;;;6.40;5.65;;;8.20;98.50;;;;;;5123924;27;20111;-83
2023/11/11 08:35:07;;;;;;;6.95;6.22;;;8.20;99.90;;;;;;5104111;27;20023;-83
2023/11/11 08:37:33;;;;;;;7.68;6.97;;;8.30;99.90;;;;;;5098832;28;20597;-83
2023/11/11 08:40:01;;;;;;;16.65;8.07;;;8.40;99.90;;;;;;5120335;27;20023;-83
2023/11/11 08:42:27;;;;;;;11.90;8.15;;;8.40;99.90;;;;;;5123034;27;20053;-83
2023/11/11 08:44:57;;;;;;;11.38;9.38;;;8.40;99.90;;;;;;5104172;27;20024;-83
2023/11/11 08:47:23;;;;;;;8.02;7.32;;;8.40;99.90;;;;;;5102558;28;20073;-83
2023/11/11 08:49:49;;;;;;;6.93;5.93;;;8.50;99.90;;;;;;5120496;28;20019;-83
2023/11/11 08:52:14;;;;;;;7.55;5.53;;;8.50;99.90;;;;;;5101389;28;20048;-83
2023/11/11 08:54:40;;;;;;;8.30;6.13;;;8.60;99.90;;;;;;5101427;28;20034;-83
2023/11/11 08:57:06;;;;;;;7.20;5.32;;;8.60;99.90;;;;;;5099872;28;20024;-83
2023/11/11 08:59:32;;;;;;;6.75;6.18;;;8.60;99.90;;;;;;5099368;28;20060;-83
2023/11/11 09:01:57;;;;;;;6.50;5.93;;;8.70;99.90;;;;;;5106499;28;20118;-83
2023/11/11 09:04:23;;;;;;;6.65;5.95;;;8.70;99.90;;;;;;5107603;28;20034;-83
2023/11/11 09:06:50;;;;;;;7.82;6.93;;;8.70;99.90;;;;;;5104514;28;20073;-84
2023/11/11 09:09:16;;;;;;;9.00;7.57;;;8.70;99.90;;;;;;5103951;28;20433;-84
2023/11/11 09:11:42;;;;;;;16.27;7.97;;;8.70;99.90;;;;;;5107693;28;20024;-83
2023/11/11 09:14:09;;;;;;;9.20;7.45;;;8.70;99.90;;;;;;5102139;28;20106;-83
2023/11/11 09:16:34;;;;;;;8.02;7.25;;;8.70;99.90;;;;;;5104105;28;20111;-83
2023/11/11 09:19:12;;;;;;;9.20;8.30;;;8.70;99.90;;;;;;5100120;28;20111;-84
2023/11/11 09:21:38;;;;;;;8.68;7.75;;;8.70;99.90;;;;;;5096109;28;20035;-84
2023/11/11 09:24:06;;;;;;;10.90;7.82;;;8.80;99.90;;;;;;5105962;28;20020;-84
2023/11/11 09:26:32;;;;;;;11.65;8.70;;;8.80;99.90;;;;;;5106426;28;20085;-83
2023/11/11 09:28:59;;;;;;;11.68;8.98;;;8.80;99.90;;;;;;5103687;28;20482;-84
2023/11/11 09:31:28;;;;;;;9.30;8.10;;;8.80;99.90;;;;;;5103628;28;20584;-83
2023/11/11 09:34:00;;;;;;;13.80;7.53;;;8.80;99.90;;;;;;5102097;28;20032;-83
2023/11/11 09:36:29;;;;;;;;;;;9.00;99.90;;;;;;5103413;28;20020;-83
2023/11/11 09:38:54;;;;;;;8.18;7.35;;;9.00;99.90;;;;;;5105982;28;20375;-83
2023/11/11 09:41:20;;;;;;;9.23;7.93;;;9.00;99.90;;;;;;5108946;28;20105;-84
2023/11/11 09:43:47;;;;;;;9.05;6.65;;;9.00;99.90;;;;;;5104208;28;20028;-83
2023/11/11 09:46:15;;;;;;;6.60;6.05;;;9.00;97.10;;;;;;5110161;28;20032;-83
2023/11/11 09:48:42;;;;;;;7.20;6.60;;;9.10;58.70;;;;;;5108184;28;20028;-83
2023/11/11 09:51:09;;;;;;;6.13;5.47;;;9.10;51.70;;;;;;5104090;28;20103;-83
2023/11/11 09:53:37;;;;;;;6.55;5.82;;;9.10;47.30;;;;;;5106935;27;20028;-83
2023/11/11 09:56:05;;;;;;;6.95;6.30;;;9.20;26.30;;;;;;5109199;27;20027;-83
2023/11/11 09:58:31;;;;;;;6.75;6.15;;;9.30;47.20;;;;;;5124301;27;20098;-83
2023/11/11 10:00:58;;;;;;;6.88;6.07;;;9.30;61.50;;;;;;5104234;27;20486;-83
2023/11/11 10:03:23;;;;;;;8.48;6.15;;;9.30;90.70;;;;;;5108340;27;20446;-83
2023/11/11 10:05:49;;;;;;;5.70;5.20;;;9.30;90.20;;;;;;5105390;28;20066;-83
2023/11/11 10:08:15;;;;;;;7.32;6.63;;;9.40;92.10;;;;;;5108464;27;20023;-83
2023/11/11 10:10:42;;;;;;;8.63;7.68;;;9.50;85.00;;;;;;5126819;27;20102;-82
2023/11/11 10:13:07;;;;;;;7.65;6.95;;;9.50;78.50;;;;;;5106238;27;20459;-82
2023/11/11 10:15:33;;;;;;;6.13;5.50;;;9.70;91.70;;;;;;5105721;28;20114;-84
2023/11/11 10:18:00;;;;;;;7.50;6.80;;;9.70;70.20;;;;;;5126702;27;20031;-83
2023/11/11 10:20:30;;;;;;;8.70;6.75;;;9.70;44.00;;;;;;5104555;27;20439;-83
2023/11/11 10:22:58;;;;;;;8.80;7.68;;;9.80;39.70;;;;;;5108605;27;20027;-83
2023/11/11 10:25:23;;;;;;;10.60;8.07;;;9.80;45.40;;;;;;5108209;27;20027;-83
2023/11/11 10:27:57;;;;;;;10.65;7.72;;;9.90;28.80;;;;;;5123218;27;20616;-83
2023/11/11 10:30:24;;;;;;;11.43;8.15;;;10.00;32.10;;;;;;5106430;27;20023;-83
2023/11/11 10:32:54;;;;;;;9.30;8.30;;;10.00;50.90;;;;;;5126286;27;20094;-83
2023/11/11 10:35:22;;;;;;;12.98;11.57;;;10.10;44.00;;;;;;5119038;27;20012;-83
2023/11/11 10:37:50;;;;;;;15.55;12.38;;;10.10;50.60;;;;;;5124575;27;20023;-83
2023/11/11 10:40:17;;;;;;;14.95;11.43;;;10.20;57.10;;;;;;5121428;27;20090;-83
2023/11/11 10:42:48;;;;;;;15.90;12.65;;;10.30;32.30;;;;;;5126604;27;20110;-83
2023/11/11 10:45:15;;;;;;;20.95;16.00;;;10.30;63.20;;;;;;5105874;27;20026;-84
2023/11/11 10:47:45;;;;;;;17.33;13.60;;;10.40;45.30;;;;;;5105566;27;20608;-83
2023/11/11 10:50:13;;;;;;;15.07;13.23;;;10.40;55.40;;;;;;5108288;27;20382;-83
2023/11/11 10:52:40;;;;;;;16.88;13.60;;;10.40;65.90;;;;;;5127455;27;20048;-83
2023/11/11 10:55:10;;;;;;;17.63;14.80;;;10.40;72.20;;;;;;5105963;27;20386;-83
2023/11/11 10:57:41;;;;;;;18.38;15.68;;;10.50;79.80;;;;;;5125816;27;20110;-83
2023/11/11 11:00:17;;;;;;;20.73;16.58;;;10.60;92.10;;;;;;5120206;27;20030;-82
2023/11/11 11:02:46;;;;;;;22.27;16.52;;;10.70;81.30;;;;;;5104527;28;20032;-83
2023/11/11 11:05:20;;;;;;;21.27;16.77;;;10.60;67.20;;;;;;5119262;27;20501;-84
2023/11/11 11:07:52;;;;;;;22.08;17.70;;;10.60;71.10;;;;;;5123308;27;20027;-83
2023/11/11 11:10:31;;;;;;;19.55;16.55;;;10.60;97.00;;;;;;5114032;27;20030;-83
2023/11/11 11:13:02;;;;;;;26.15;18.38;;;10.70;91.10;;;;;;5106886;27;20031;-82
2023/11/11 11:15:36;;;;;;;18.25;16.35;;;10.70;99.00;;;;;;5104647;27;20023;-82
2023/11/11 11:18:02;;;;;;;23.02;18.55;;;10.80;80.90;;;;;;5123155;27;20024;-82
2023/11/11 11:20:27;;;;;;;27.83;17.92;;;10.80;92.40;;;;;;5123104;27;20030;-83
2023/11/11 11:23:00;;;;;;;22.17;18.45;;;10.80;99.60;;;;;;5121177;27;20352;-83
2023/11/11 11:25:32;;;;;;;24.65;18.40;;;10.80;97.70;;;;;;5125371;27;20577;-83
2023/11/11 11:28:14;;;;;;;25.88;20.13;;;10.90;99.90;;;;;;5108776;27;20057;-83
2023/11/11 11:30:42;;;;;;;26.40;21.95;;;11.00;99.90;;;;;;5127091;27;20416;-82
2023/11/11 11:33:10;;;;;;;28.70;20.90;;;11.10;97.60;;;;;;5103522;27;20020;-83
2023/11/11 11:35:38;;;;;;;26.38;21.15;;;11.10;68.60;;;;;;5124210;27;20019;-83
2023/11/11 11:38:07;;;;;;;31.67;22.02;;;11.10;89.10;;;;;;5124027;27;20114;-83
2023/11/11 11:40:36;;;;;;;25.10;20.60;;;11.20;95.90;;;;;;5103462;27;20035;-83
2023/11/11 11:43:11;;;;;;;27.60;20.30;;;11.20;96.00;;;;;;5105749;27;20023;-83
2023/11/11 11:45:38;;;;;;;26.90;20.92;;;11.20;82.10;;;;;;5106305;27;20480;-83
2023/11/11 11:48:07;;;;;;;29.52;20.95;;;11.20;95.30;;;;;;5121483;27;20027;-83
2023/11/11 11:50:36;;;;;;;27.92;21.33;;;11.30;93.80;;;;;;5124188;27;20016;-82
2023/11/11 11:53:06;;;;;;;26.27;20.35;;;11.40;92.70;;;;;;5122303;27;20071;-82
2023/11/11 11:55:36;;;;;;;27.73;21.23;;;11.40;68.20;;;;;;5110227;27;20065;-83
2023/11/11 11:58:03;;;;;;;27.02;21.48;;;11.40;70.10;;;;;;5122586;27;20020;-83
2023/11/11 12:00:30;;;;;;;26.45;18.90;;;11.40;86.60;;;;;;5125393;27;20031;-83
2023/11/11 12:02:58;;;;;;;22.83;18.33;;;11.50;80.20;;;;;;5122453;27;20061;-83
2023/11/11 12:05:25;;;;;;;25.55;18.40;;;11.50;48.10;;;;;;5123374;27;20019;-82
2023/11/11 12:07:51;;;;;;;26.60;20.27;;;11.40;35.90;;;;;;5122142;27;20024;-83
2023/11/11 12:10:18;;;;;;;22.95;19.63;;;11.50;60.40;;;;;;5121579;27;20429;-83
2023/11/11 12:12:44;;;;;;;29.90;21.65;;;11.50;65.10;;;;;;5105417;27;20020;-83
2023/11/11 12:15:18;;;;;;;23.17;18.60;;;11.40;56.60;;;;;;5120884;27;20527;-83
2023/11/11 12:17:45;;;;;;;24.42;18.35;;;11.40;42.50;;;;;;5118421;27;20045;-83
2023/11/11 12:20:14;;;;;;;25.80;19.77;;;11.40;44.00;;;;;;5095312;28;20107;-83
2023/11/11 12:22:47;;;;;;;21.85;18.90;;;11.40;55.20;;;;;;5113601;28;20428;-83
2023/11/11 12:25:13;;;;;;;25.30;19.02;;;11.40;64.10;;;;;;5113675;28;20102;-82
2023/11/11 12:27:44;;;;;;;22.58;18.85;;;11.40;67.10;;;;;;5129062;27;20867;-83
2023/11/11 12:30:20;;;;;;;27.65;20.42;;;11.40;59.80;;;;;;5109034;27;20032;-82
2023/11/11 12:33:08;;;;;;;25.08;19.52;;;11.50;84.00;;;;;;5134096;27;20019;-83
2023/11/11 12:35:36;;;;;;;23.80;19.30;;;11.50;62.70;;;;;;5114772;28;20035;-82
2023/11/11 12:38:22;;;;;;;25.10;19.20;;;11.60;58.30;;;;;;5129665;27;20046;-82
2023/11/11 12:40:48;;;;;;;26.55;20.35;;;11.60;42.20;;;;;;5125554;27;20058;-82
2023/11/11 12:43:15;;;;;;;24.48;18.65;;;11.50;36.50;;;;;;5127956;27;20047;-82
2023/11/11 12:45:49;;;;;;;21.48;18.45;;;11.50;44.90;;;;;;5109338;28;20431;-83
2023/11/11 12:48:16;;;;;;;22.58;18.23;;;11.50;44.40;;;;;;5133601;27;20023;-82
2023/11/11 12:50:43;;;;;;;23.60;18.85;;;11.50;45.20;;;;;;5121591;28;20012;-83